createdAt,value
2022-10-17T03:55:12.541Z,9.22
2022-10-17T03:58:15.054Z,9.25
2022-10-17T04:01:18.562Z,9.28
2022-10-17T04:04:21.737Z,9.36
2022-10-17T04:07:23.887Z,9.29
2022-10-17T04:10:26.213Z,9.32
2022-10-17T04:13:28.967Z,9.39
2022-10-17T04:16:31.700Z,9.26
2022-10-17T04:19:34.195Z,9.34
2022-10-17T04:22:37.048Z,9.42
2022-10-17T04:25:39.361Z,9.38
2022-10-17T04:28:41.766Z,9.39
2022-10-17T04:31:44.389Z,9.44
2022-10-17T04:34:50.425Z,9.53
2022-10-17T04:37:55.234Z,9.54
2022-10-17T04:41:03.205Z,9.53
2022-10-17T04:44:05.807Z,9.68
2022-10-17T04:47:08.512Z,9.83
2022-10-17T04:50:10.722Z,9.87
2022-10-17T04:53:14.657Z,9.72
2022-10-17T04:56:22.153Z,9.73
2022-10-17T04:59:24.522Z,9.75
2022-10-17T05:02:28.086Z,9.75
2022-10-17T05:05:31.487Z,9.78
2022-10-17T05:08:34.243Z,9.74
2022-10-17T05:11:36.893Z,9.69
2022-10-17T05:14:39.811Z,9.88
2022-10-17T05:17:42.379Z,9.94
2022-10-17T05:20:46.050Z,9.85
2022-10-17T05:23:48.429Z,9.72
2022-10-17T05:26:51.881Z,9.72
2022-10-17T05:29:54.609Z,9.80
2022-10-17T05:32:58.692Z,9.75
2022-10-17T05:36:02.380Z,9.93
2022-10-17T05:39:04.730Z,9.94
2022-10-17T05:42:07.589Z,9.94
2022-10-17T05:45:10.638Z,10.01
2022-10-17T05:48:12.984Z,10.05
2022-10-17T05:51:15.054Z,10.13
2022-10-17T05:54:19.332Z,10.04
2022-10-17T05:57:21.441Z,10.04
2022-10-17T06:00:24.226Z,10.07
2022-10-17T06:03:26.866Z,10.10
2022-10-17T06:06:29.148Z,10.18
2022-10-17T06:09:31.605Z,10.28
2022-10-17T06:12:33.905Z,10.36
2022-10-17T06:15:36.485Z,10.39
2022-10-17T06:18:39.228Z,10.51
2022-10-17T06:21:41.661Z,10.58
2022-10-17T06:24:44.259Z,10.70
2022-10-17T06:27:47.339Z,10.81
2022-10-17T06:30:49.433Z,10.93
2022-10-17T06:33:51.861Z,10.96
2022-10-17T06:36:54.029Z,11.17
2022-10-17T06:39:56.509Z,11.24
2022-10-17T06:42:58.749Z,11.37
2022-10-17T06:46:01.075Z,11.47
2022-10-17T06:49:04.832Z,11.64
2022-10-17T06:52:10.265Z,11.82
2022-10-17T06:55:14.880Z,12.04
2022-10-17T06:58:19.215Z,12.14
2022-10-17T07:01:22.613Z,12.24
2022-10-17T07:04:25.720Z,12.45
2022-10-17T07:07:31.626Z,12.57
2022-10-17T07:10:38.280Z,12.68
2022-10-17T07:13:40.811Z,12.75
2022-10-17T07:16:43.749Z,12.85
2022-10-17T07:19:49.536Z,12.90
2022-10-17T07:22:51.909Z,13.05
2022-10-17T07:25:59.874Z,13.07
2022-10-17T07:29:02.358Z,13.27
2022-10-17T07:32:08.587Z,13.34
2022-10-17T07:35:12.023Z,13.44
2022-10-17T07:38:14.742Z,13.49
2022-10-17T07:41:20.937Z,13.55
2022-10-17T07:44:24.771Z,13.62
2022-10-17T07:47:27.575Z,13.76
2022-10-17T07:50:31.666Z,13.83
2022-10-17T07:53:38.828Z,13.86
2022-10-17T07:56:40.937Z,13.94
2022-10-17T07:59:43.229Z,14.08
2022-10-17T08:02:45.639Z,14.17
2022-10-17T08:05:48.097Z,14.25
2022-10-17T08:08:50.295Z,14.33
2022-10-17T08:11:52.756Z,14.40
2022-10-17T08:14:54.816Z,14.48
2022-10-17T08:17:57.122Z,14.58
2022-10-17T08:21:00.909Z,14.64
2022-10-17T08:24:03.566Z,14.77
2022-10-17T08:27:11.218Z,14.87
2022-10-17T08:30:13.864Z,14.94
2022-10-17T08:33:15.951Z,15.03
2022-10-17T08:36:21.471Z,15.18
2022-10-17T08:39:23.501Z,15.21
2022-10-17T08:42:53.294Z,15.24
2022-10-17T08:46:07.936Z,15.30
2022-10-17T08:57:16.039Z,15.60
2022-10-17T09:24:38.068Z,16.40
2022-10-17T09:27:48.743Z,16.46
2022-10-17T09:30:59.443Z,16.50
2022-10-17T09:34:02.976Z,16.58
2022-10-17T09:37:13.035Z,16.63
2022-10-17T09:40:26.741Z,16.72
2022-10-17T09:43:29.081Z,16.82
2022-10-17T09:46:39.076Z,16.87
2022-10-17T09:49:43.994Z,16.93
2022-10-17T09:52:48.677Z,17.03
2022-10-17T09:56:02.749Z,17.10
2022-10-17T09:59:05.063Z,17.15
2022-10-17T10:02:10.199Z,17.26
2022-10-17T10:05:20.986Z,17.24
2022-10-17T10:08:26.296Z,17.31
2022-10-17T10:11:49.178Z,17.38
2022-10-17T10:14:54.698Z,17.47
2022-10-17T10:17:57.652Z,17.60
2022-10-17T10:21:04.367Z,17.78
2022-10-17T10:24:13.271Z,17.89
2022-10-17T10:27:17.611Z,17.97
2022-10-17T10:30:25.863Z,18.06
2022-10-17T10:33:30.772Z,18.12
2022-10-17T10:36:49.890Z,18.23
2022-10-17T10:39:54.252Z,18.21
2022-10-17T10:43:03.966Z,18.31
2022-10-17T10:46:36.393Z,18.32
2022-10-17T10:49:39.530Z,18.31
2022-10-17T10:52:50.178Z,18.28
2022-10-17T10:55:58.514Z,18.40
2022-10-17T10:59:09.437Z,18.62
2022-10-17T11:02:20.237Z,18.67
2022-10-17T11:05:40.254Z,18.75
2022-10-17T11:09:32.949Z,18.82
2022-10-17T11:12:48.532Z,18.95
2022-10-17T11:16:00.954Z,19.01
2022-10-17T11:19:14.504Z,19.04
2022-10-17T11:22:29.127Z,19.05
2022-10-17T11:25:38.012Z,19.16
2022-10-17T11:28:40.745Z,19.19
2022-10-17T11:31:50.349Z,19.19
2022-10-17T11:35:04.141Z,19.23
2022-10-17T11:38:17.432Z,19.23
2022-10-17T11:41:31.343Z,19.19
2022-10-17T11:44:38.900Z,19.27
2022-10-17T11:47:47.502Z,19.35
2022-10-17T11:54:29.436Z,19.30
2022-10-17T11:57:56.620Z,19.38
2022-10-17T12:01:17.720Z,19.46
2022-10-17T12:04:38.121Z,19.50
2022-10-17T12:07:54.907Z,19.46
2022-10-17T12:11:01.245Z,19.51
2022-10-17T12:14:23.686Z,19.53
2022-10-17T12:17:33.949Z,19.58
2022-10-17T12:20:37.997Z,19.67
2022-10-17T12:23:41.173Z,19.80
2022-10-17T12:26:43.252Z,19.72
2022-10-17T12:29:45.578Z,19.76
2022-10-17T12:33:25.611Z,19.73
2022-10-17T12:36:30.722Z,19.88
2022-10-17T12:39:38.673Z,19.76
2022-10-17T12:42:49.665Z,19.81
2022-10-17T12:45:56.047Z,19.81
2022-10-17T12:49:04.428Z,19.88
2022-10-17T12:52:17.201Z,19.78
2022-10-17T12:55:23.554Z,19.71
2022-10-17T12:58:25.741Z,19.74
2022-10-17T13:01:31.793Z,19.76
2022-10-17T13:04:36.701Z,19.73
2022-10-17T13:07:43.542Z,19.85
2022-10-17T13:10:51.661Z,19.86
2022-10-17T13:13:58.905Z,19.80
2022-10-17T13:17:03.856Z,19.89
2022-10-17T13:20:27.682Z,19.85
2022-10-17T13:23:35.077Z,19.80
2022-10-17T13:26:37.373Z,19.84
2022-10-17T13:29:44.368Z,19.82
2022-10-17T13:32:46.560Z,19.85
2022-10-17T13:35:59.898Z,19.86
2022-10-17T13:39:13.653Z,19.88
2022-10-17T13:42:26.386Z,19.86
2022-10-17T13:45:30.317Z,19.83
2022-10-17T13:48:36.563Z,19.77
2022-10-17T13:51:44.450Z,19.75
2022-10-17T13:54:49.093Z,19.84
2022-10-17T13:57:52.441Z,19.74
2022-10-17T14:00:54.820Z,19.73
2022-10-17T14:04:08.491Z,19.69
2022-10-17T14:07:26.348Z,19.71
2022-10-17T14:10:31.746Z,19.77
2022-10-17T14:13:35.478Z,19.68
2022-10-17T14:16:41.333Z,19.72
2022-10-17T14:19:46.037Z,19.62
2022-10-17T14:23:17.875Z,19.59
2022-10-17T14:26:21.857Z,19.59
2022-10-17T14:29:33.216Z,19.50
2022-10-17T14:32:37.451Z,19.39
2022-10-17T14:35:41.853Z,19.36
2022-10-17T14:38:52.452Z,19.29
2022-10-17T14:41:55.321Z,19.18
2022-10-17T14:45:11.502Z,19.12
2022-10-17T14:48:20.323Z,19.09
2022-10-17T14:51:22.835Z,19.00
2022-10-17T14:54:29.082Z,18.94
2022-10-17T14:57:34.383Z,18.84
2022-10-17T15:00:36.680Z,18.75
2022-10-17T15:03:38.786Z,18.68
2022-10-17T15:06:41.233Z,18.57
2022-10-17T15:09:44.853Z,18.60
2022-10-17T15:12:56.197Z,18.48
2022-10-17T15:16:02.079Z,18.41
2022-10-17T15:19:04.411Z,18.30
2022-10-17T15:22:06.510Z,18.21
2022-10-17T15:25:09.290Z,18.14
2022-10-17T15:28:12.957Z,18.06
2022-10-17T15:31:18.470Z,17.97
2022-10-17T15:34:20.505Z,17.89
2022-10-17T15:37:25.002Z,17.78
2022-10-17T15:40:29.130Z,17.70
2022-10-17T15:43:31.442Z,17.65
2022-10-17T15:46:35.428Z,17.53
2022-10-17T15:49:37.747Z,17.43
